KGEG/GEG METAR and TAF weather

Enter ICAO airport designator
Station Type Date Time Source
KGEG METAR 2021/09/28 04:16 UTC NOAA

KGEG 280416Z 20009KT 6SM RA BR FEW009 BKN037 OVC044 10/09 A2985 RMK AO2 P0004 T01000089


Station Type Date Time Source
KGEG Decoded METAR 2021/09/28 04:16 UTC NOAA

SPOKANE INTERNATIONAL AIRPORT , WA, United States (KGEG) 47-37N 117-32W 735M
Sep 28, 2021 - 12:16 AM EDT / 2021.09.28 0416 UTC
Wind: from the SSW (200 degrees) at 10 MPH (9 KT):0
Visibility: 6 mile(s):0
Sky conditions: overcast
Weather: rain; mist
Precipitation last hour: 0.04 inches
Temperature: 50.0 F (10.0 C)
Dew Point: 48.0 F (8.9 C)
Relative Humidity: 92%
Pressure (altimeter): 29.85 in. Hg (1010 hPa)
ob: KGEG 280416Z 20009KT 6SM RA BR FEW009 BKN037 OVC044 10/09 A2985 RMK AO2 P0004 T01000089
cycle: 4

Station Type Date Time Source
KGEG TAF 2021/09/27 18:42 UTC NOAA

TAF KGEG 271739Z 2718/2818 21014KT P6SM VCSH BKN050 OVC070
FM280100 23012KT P6SM -RA SCT020 OVC050
FM280400 22012KT P6SM -RA SCT018 OVC025
FM280700 20014G20KT P6SM -RA BKN018 OVC025
FM280900 20017G25KT P6SM BKN020
FM281200 20016G22KT P6SM OVC030

Example: see airport list